Time;durP1;ratioP1;P1;durP2;ratioP2;P2;SDS_P1;SDS_P2;PMS_P1;PMS_P2;Temp;Humidity;BMP_temperature;BMP_pressure;BME280_temperature;BME280_humidity;BME280_pressure;Samples;Min_cycle;Max_cycle;Signal;HPM_P1;HPM_P2
2021/09/20 00:04:04;;;;;;;11.07;9.53;;;;;12.90;101143.00;;;;10465714;28;20539;-77
2021/09/20 00:09:05;;;;;;;12.20;9.80;;;;;12.80;101131.00;;;;10449491;28;20194;-78
2021/09/20 00:14:07;;;;;;;12.43;9.83;;;;;12.80;101132.00;;;;10477303;28;20240;-77
2021/09/20 00:19:08;;;;;;;10.50;9.10;;;;;12.70;101139.00;;;;10475409;28;20205;-77
2021/09/20 00:24:09;;;;;;;12.13;9.60;;;;;12.70;101139.00;;;;10491235;28;20559;-77
2021/09/20 00:29:10;;;;;;;10.93;9.20;;;;;12.70;101145.00;;;;10482415;28;20887;-77
2021/09/20 00:34:11;;;;;;;11.07;8.63;;;;;12.70;101138.00;;;;10489926;28;20217;-77
2021/09/20 00:39:13;;;;;;;12.57;9.83;;;;;12.70;101147.00;;;;10490344;28;20216;-77
2021/09/20 00:44:14;;;;;;;11.37;9.50;;;;;12.80;101139.00;;;;10466675;28;20205;-77
2021/09/20 00:49:15;;;;;;;14.30;9.80;;;;;12.80;101137.00;;;;10448364;28;20199;-77
2021/09/20 00:54:17;;;;;;;11.83;9.80;;;;;12.90;101140.00;;;;10449726;28;20634;-78
2021/09/20 00:59:20;;;;;;;12.90;10.50;;;;;12.90;101142.00;;;;10479257;28;20211;-77
2021/09/20 01:04:21;;;;;;;16.90;10.90;;;;;13.00;101144.00;;;;10482232;28;20410;-77
2021/09/20 01:09:25;;;;;;;14.90;10.80;;;;;13.10;101141.00;;;;10466227;28;20283;-77
2021/09/20 01:14:26;;;;;;;13.43;10.30;;;;;13.10;101149.00;;;;10448522;28;20244;-77
2021/09/20 01:19:27;;;;;;;12.70;10.17;;;;;13.20;101139.00;;;;10446020;28;20272;-77
2021/09/20 01:24:29;;;;;;;15.13;9.90;;;;;13.20;101140.00;;;;10463465;28;20273;-77
2021/09/20 01:29:31;;;;;;;13.10;10.27;;;;;13.20;101147.00;;;;10478002;28;20205;-77
2021/09/20 01:34:33;;;;;;;14.10;10.20;;;;;13.20;101145.00;;;;10488144;28;20220;-77
2021/09/20 01:39:36;;;;;;;13.40;10.07;;;;;13.20;101147.00;;;;10489980;28;20243;-76
2021/09/20 01:44:38;;;;;;;11.77;9.90;;;;;13.20;101153.00;;;;10490150;28;20243;-77
2021/09/20 01:49:39;;;;;;;14.37;9.33;;;;;13.20;101140.00;;;;10471995;28;20193;-77
2021/09/20 01:54:40;;;;;;;12.60;9.70;;;;;13.20;101138.00;;;;10470116;28;20213;-78
2021/09/20 01:59:41;;;;;;;14.47;10.50;;;;;13.20;101140.00;;;;10505101;28;20279;-77
2021/09/20 02:04:43;;;;;;;13.53;10.43;;;;;13.20;101144.00;;;;10464649;28;20305;-77
2021/09/20 02:09:44;;;;;;;13.63;10.17;;;;;13.10;101137.00;;;;10430203;28;20197;-78
2021/09/20 02:14:45;;;;;;;11.47;9.53;;;;;13.10;101143.00;;;;10478358;28;21041;-78
2021/09/20 02:19:46;;;;;;;14.37;9.70;;;;;13.00;101145.00;;;;10472207;28;20189;-77
2021/09/20 02:24:48;;;;;;;13.87;10.23;;;;;12.90;101148.00;;;;10471947;28;20667;-78
2021/09/20 02:29:50;;;;;;;12.83;10.13;;;;;12.80;101146.00;;;;10480964;28;20292;-77
2021/09/20 02:34:51;;;;;;;16.20;10.13;;;;;12.70;101156.00;;;;10511762;28;20673;-78
2021/09/20 02:39:52;;;;;;;15.80;9.67;;;;;12.60;101151.00;;;;10484351;28;20246;-77
2021/09/20 02:44:54;;;;;;;12.60;10.43;;;;;12.50;101150.00;;;;10486933;28;20235;-78
2021/09/20 02:49:55;;;;;;;12.47;9.73;;;;;12.40;101166.00;;;;10502029;28;20798;-77
2021/09/20 02:54:57;;;;;;;17.67;9.67;;;;;12.40;101164.00;;;;10494471;28;20228;-77
2021/09/20 02:59:58;;;;;;;14.67;10.03;;;;;12.40;101180.00;;;;10518003;27;20230;-77
2021/09/20 03:05:00;;;;;;;11.67;9.50;;;;;12.40;101181.00;;;;10561817;27;20192;-77
2021/09/20 03:10:02;;;;;;;14.03;9.93;;;;;12.50;101186.00;;;;10527235;27;20196;-77
2021/09/20 03:15:05;;;;;;;13.00;9.90;;;;;12.50;101188.00;;;;10543372;27;20220;-78
2021/09/20 03:20:07;;;;;;;15.23;10.33;;;;;12.50;101187.00;;;;10542890;27;20204;-77
2021/09/20 03:25:10;;;;;;;13.90;9.80;;;;;12.60;101185.00;;;;10522662;27;20216;-77
2021/09/20 03:30:13;;;;;;;14.40;10.10;;;;;12.50;101185.00;;;;10466011;28;20200;-77
2021/09/20 03:35:15;;;;;;;16.53;11.27;;;;;12.50;101186.00;;;;10478335;28;20230;-78
2021/09/20 03:40:18;;;;;;;13.37;10.00;;;;;12.50;101189.00;;;;10501744;28;20790;-78
2021/09/20 03:45:19;;;;;;;11.97;9.20;;;;;12.50;101201.00;;;;10492291;28;20593;-78
2021/09/20 03:50:20;;;;;;;16.10;10.13;;;;;12.50;101193.00;;;;10511821;28;20724;-77
2021/09/20 03:55:21;;;;;;;15.17;10.77;;;;;12.50;101190.00;;;;10446800;28;20213;-76
2021/09/20 04:00:23;;;;;;;17.50;11.23;;;;;12.60;101206.00;;;;10476390;28;20221;-77
2021/09/20 04:05:24;;;;;;;15.43;11.07;;;;;12.70;101220.00;;;;10453571;28;20281;-77
2021/09/20 04:10:25;;;;;;;16.40;11.23;;;;;12.80;101233.00;;;;10485622;28;20231;-78
2021/09/20 04:15:26;;;;;;;13.90;10.80;;;;;12.80;101242.00;;;;10476827;28;20746;-77
2021/09/20 04:20:27;;;;;;;18.47;11.37;;;;;12.90;101240.00;;;;10476968;28;20205;-76
2021/09/20 04:25:29;;;;;;;14.00;10.30;;;;;12.90;101244.00;;;;10510192;28;20770;-78
2021/09/20 04:30:30;;;;;;;13.03;10.33;;;;;12.90;101251.00;;;;10451837;28;20205;-77
2021/09/20 04:35:31;;;;;;;15.40;11.00;;;;;12.90;101256.00;;;;10435244;28;20229;-78
2021/09/20 04:40:34;;;;;;;13.13;10.60;;;;;12.80;101263.00;;;;10466196;28;20217;-78
2021/09/20 04:45:37;;;;;;;13.77;11.17;;;;;12.80;101276.00;;;;10481965;28;20213;-78
2021/09/20 04:50:43;;;;;;;12.83;11.30;;;;;12.70;101275.00;;;;10449772;28;20255;-78
2021/09/20 04:55:46;;;;;;;16.67;11.40;;;;;12.60;101277.00;;;;10449093;28;20355;-77
2021/09/20 05:00:47;;;;;;;18.53;11.30;;;;;12.50;101281.00;;;;10467639;28;20928;-77
2021/09/20 05:05:49;;;;;;;15.93;11.17;;;;;12.40;101280.00;;;;10492454;28;20200;-78
2021/09/20 05:10:50;;;;;;;19.17;11.77;;;;;12.40;101274.00;;;;10493024;28;20211;-77
2021/09/20 05:15:51;;;;;;;16.53;12.70;;;;;12.30;101270.00;;;;10487655;28;20217;-77
2021/09/20 05:20:52;;;;;;;15.17;11.63;;;;;12.20;101273.00;;;;10489910;28;20955;-77
2021/09/20 05:25:54;;;;;;;19.00;13.07;;;;;12.10;101270.00;;;;10488780;28;20694;-77
2021/09/20 05:30:56;;;;;;;20.00;13.67;;;;;12.00;101277.00;;;;10469517;28;20208;-77
2021/09/20 05:35:57;;;;;;;21.13;14.10;;;;;12.00;101275.00;;;;10456043;28;20311;-77
2021/09/20 05:40:59;;;;;;;18.83;14.00;;;;;12.00;101277.00;;;;10471441;28;20219;-78
2021/09/20 05:46:00;;;;;;;21.47;14.77;;;;;12.00;101291.00;;;;10483891;28;20274;-78
2021/09/20 05:51:02;;;;;;;24.67;14.27;;;;;12.00;101290.00;;;;10448539;28;20197;-78
2021/09/20 05:56:03;;;;;;;21.27;14.00;;;;;12.00;101295.00;;;;10465223;28;20229;-78
2021/09/20 06:01:05;;;;;;;22.57;15.07;;;;;12.10;101309.00;;;;10468155;28;20571;-78
2021/09/20 06:06:06;;;;;;;20.70;15.33;;;;;12.20;101310.00;;;;10431332;28;20581;-79
2021/09/20 06:11:07;;;;;;;27.30;17.97;;;;;12.60;101340.00;;;;10449633;28;20271;-78
2021/09/20 06:16:09;;;;;;;26.03;17.37;;;;;12.80;101356.00;;;;10466185;28;20223;-78
2021/09/20 06:21:10;;;;;;;30.83;18.17;;;;;13.00;101369.00;;;;10445912;28;20571;-78
2021/09/20 06:26:17;;;;;;;27.33;16.97;;;;;13.10;101374.00;;;;10480196;28;20682;-78
2021/09/20 06:31:18;;;;;;;26.63;17.83;;;;;13.10;101377.00;;;;10471572;28;20204;-78
2021/09/20 06:36:20;;;;;;;25.60;17.63;;;;;13.20;101388.00;;;;10489190;28;20229;-78
2021/09/20 06:41:21;;;;;;;24.17;17.23;;;;;13.30;101386.00;;;;10450192;28;20256;-78
2021/09/20 06:46:23;;;;;;;24.73;17.70;;;;;13.50;101400.00;;;;10464349;28;20205;-79
2021/09/20 06:51:25;;;;;;;23.53;17.10;;;;;13.70;101408.00;;;;10464097;28;20205;-78
2021/09/20 06:56:26;;;;;;;21.80;16.50;;;;;13.90;101414.00;;;;10467223;28;20276;-79
2021/09/20 07:01:27;;;;;;;20.23;15.13;;;;;14.10;101424.00;;;;10464002;28;20212;-79
2021/09/20 07:06:29;;;;;;;18.33;14.27;;;;;14.30;101435.00;;;;10464945;28;20193;-78
2021/09/20 07:11:30;;;;;;;18.87;14.23;;;;;14.60;101439.00;;;;10486454;28;20208;-79
2021/09/20 07:16:32;;;;;;;19.77;14.20;;;;;14.60;101435.00;;;;10474548;28;20620;-78
2021/09/20 07:21:34;;;;;;;16.17;13.83;;;;;14.60;101447.00;;;;10475493;28;20690;-79
2021/09/20 07:26:35;;;;;;;18.00;13.97;;;;;14.60;101444.00;;;;10486461;28;20205;-78
2021/09/20 07:31:37;;;;;;;18.60;13.47;;;;;14.70;101447.00;;;;10466564;28;20196;-78
2021/09/20 07:36:38;;;;;;;26.10;15.27;;;;;14.70;101451.00;;;;10456248;28;20201;-78
2021/09/20 07:41:39;;;;;;;18.67;14.10;;;;;14.90;101443.00;;;;10456111;28;20312;-78
2021/09/20 07:46:41;;;;;;;18.37;14.57;;;;;14.90;101445.00;;;;10489813;28;20205;-79
2021/09/20 07:51:42;;;;;;;19.20;15.27;;;;;15.00;101447.00;;;;10469163;28;20202;-78
2021/09/20 07:56:43;;;;;;;19.40;14.13;;;;;15.40;101456.00;;;;10466906;28;20196;-78
2021/09/20 08:01:45;;;;;;;19.13;13.30;;;;;15.50;101461.00;;;;10509310;28;20219;-78
2021/09/20 08:06:46;;;;;;;19.63;14.23;;;;;15.50;101466.00;;;;10479926;28;20223;-78
2021/09/20 08:11:48;;;;;;;18.10;13.60;;;;;15.70;101466.00;;;;10511065;28;20188;-79
2021/09/20 08:16:49;;;;;;;18.13;13.20;;;;;16.00;101474.00;;;;10509749;28;20205;-78
2021/09/20 08:21:50;;;;;;;15.90;13.00;;;;;16.30;101480.00;;;;10494122;28;20661;-79
2021/09/20 08:26:52;;;;;;;16.23;12.43;;;;;16.60;101492.00;;;;10477799;28;20223;-79
2021/09/20 08:31:53;;;;;;;18.95;13.13;;;;;16.80;101494.00;;;;10494131;28;20197;-79
2021/09/20 08:36:54;;;;;;;16.05;13.13;;;;;17.00;101498.00;;;;10492371;28;20200;-81
2021/09/20 08:41:56;;;;;;;16.23;12.98;;;;;17.10;101506.00;;;;10504931;28;20213;-80
2021/09/20 08:46:57;;;;;;;17.02;12.95;;;;;17.20;101498.00;;;;10475430;28;20260;-80
2021/09/20 08:51:58;;;;;;;16.40;13.18;;;;;17.50;101491.00;;;;10478583;28;20239;-79
2021/09/20 08:57:00;;;;;;;16.55;12.75;;;;;17.70;101503.00;;;;10501646;28;20207;-80
2021/09/20 09:02:03;;;;;;;17.23;12.75;;;;;17.90;101508.00;;;;10509227;28;20208;-80
2021/09/20 09:07:07;;;;;;;22.38;15.60;;;;;17.70;101510.00;;;;10485389;28;20191;-80
2021/09/20 09:12:11;;;;;;;17.25;12.73;;;;;18.10;101508.00;;;;10466116;28;20218;-80
2021/09/20 09:17:19;;;;;;;12.63;10.75;;;;;18.20;101509.00;;;;10465364;28;20201;-79
2021/09/20 09:22:23;;;;;;;12.40;10.48;;;;;18.50;101509.00;;;;10458165;28;20216;-80
2021/09/20 09:27:26;;;;;;;11.50;10.30;;;;;19.00;101494.00;;;;10498881;28;20204;-79
2021/09/20 09:32:27;;;;;;;11.00;9.63;;;;;19.30;101494.00;;;;10486014;28;20225;-80
2021/09/20 09:37:29;;;;;;;10.07;9.07;;;;;19.70;101505.00;;;;10506032;28;20205;-80
2021/09/20 09:42:30;;;;;;;11.10;8.50;;;;;20.40;101502.00;;;;10483380;28;20224;-80
2021/09/20 09:47:31;;;;;;;10.35;9.18;;;;;20.50;101509.00;;;;10502611;28;20196;-80
2021/09/20 09:52:36;;;;;;;12.20;8.63;;;;;20.10;101513.00;;;;10480259;28;20646;-80
2021/09/20 09:57:39;;;;;;;11.00;9.57;;;;;19.70;101522.00;;;;10459315;28;20644;-80
2021/09/20 10:02:46;;;;;;;14.15;9.45;;;;;19.60;101515.00;;;;10475383;28;20802;-79
2021/09/20 10:07:51;;;;;;;11.45;10.25;;;;;19.80;101514.00;;;;10491476;28;20196;-80
2021/09/20 10:12:54;;;;;;;12.68;10.10;;;;;20.40;101514.00;;;;10478670;28;20213;-80
2021/09/20 10:17:55;;;;;;;13.13;10.32;;;;;20.90;101514.00;;;;10506789;28;20296;-80
2021/09/20 10:22:57;;;;;;;13.20;9.30;;;;;21.40;101507.00;;;;10489979;28;20243;-80
2021/09/20 10:27:58;;;;;;;11.18;9.85;;;;;21.70;101507.00;;;;10486655;28;20197;-80
2021/09/20 10:33:04;;;;;;;9.13;8.10;;;;;22.10;101513.00;;;;10475401;28;20212;-80
2021/09/20 10:38:20;;;;;;;11.68;8.77;;;;;21.70;101511.00;;;;10458611;28;20198;-80
2021/09/20 10:43:24;;;;;;;10.85;9.27;;;;;21.70;101504.00;;;;10448289;28;20205;-80
2021/09/20 10:48:29;;;;;;;13.77;10.00;;;;;21.70;101505.00;;;;10465057;28;20292;-81
2021/09/20 10:53:32;;;;;;;14.75;9.77;;;;;21.10;101499.00;;;;10467519;28;20225;-80
2021/09/20 10:58:43;;;;;;;12.60;9.73;;;;;21.60;101505.00;;;;10472635;28;20223;-81
2021/09/20 11:03:54;;;;;;;13.52;9.25;;;;;22.10;101504.00;;;;10472997;28;20244;-80
2021/09/20 11:08:58;;;;;;;10.85;9.38;;;;;22.10;101498.00;;;;10474457;28;20828;-80
2021/09/20 11:14:01;;;;;;;15.18;9.40;;;;;22.20;101500.00;;;;10438692;28;20232;-80
2021/09/20 11:19:23;;;;;;;9.85;8.35;;;;;22.30;101501.00;;;;10495964;28;20211;-81
2021/09/20 11:24:34;;;;;;;11.50;9.38;;;;;22.40;101504.00;;;;10479083;28;20207;-80
2021/09/20 11:29:35;;;;;;;9.80;8.27;;;;;22.70;101502.00;;;;10502329;28;20237;-81
2021/09/20 11:34:38;;;;;;;10.60;8.73;;;;;22.90;101515.00;;;;10437816;28;20217;-80
2021/09/20 11:39:57;;;;;;;12.63;8.95;;;;;23.10;101509.00;;;;10437869;28;20225;-81
2021/09/20 11:45:01;;;;;;;12.82;10.20;;;;;23.60;101517.00;;;;10476061;28;20960;-81
2021/09/20 11:50:13;;;;;;;11.02;8.35;;;;;23.70;101517.00;;;;10470013;28;20189;-81
2021/09/20 11:55:25;;;;;;;11.57;9.88;;;;;23.40;101524.00;;;;10451509;28;20764;-81
2021/09/20 12:00:29;;;;;;;12.20;10.63;;;;;24.00;101519.00;;;;10492920;28;20200;-81
2021/09/20 12:05:38;;;;;;;11.02;9.88;;;;;23.80;101528.00;;;;10495042;28;20588;-81
2021/09/20 12:10:45;;;;;;;14.15;8.98;;;;;23.10;101540.00;;;;10468704;28;20209;-78
2021/09/20 12:15:50;;;;;;;11.30;9.25;;;;;22.70;101531.00;;;;10467026;28;20237;-79
2021/09/20 12:21:06;;;;;;;12.43;9.20;;;;;22.80;101535.00;;;;10481204;28;20543;-81
2021/09/20 12:26:10;;;;;;;14.35;10.90;;;;;23.00;101522.00;;;;10475694;28;20200;-81
2021/09/20 12:31:18;;;;;;;12.23;9.32;;;;;22.90;101522.00;;;;10483489;28;20905;-81
2021/09/20 12:36:30;;;;;;;11.38;9.77;;;;;22.80;101535.00;;;;10453421;28;20300;-81
2021/09/20 12:41:42;;;;;;;11.50;9.40;;;;;22.50;101531.00;;;;10469998;28;20209;-81
2021/09/20 12:46:43;;;;;;;12.63;9.75;;;;;22.60;101536.00;;;;10467971;28;20612;-80
2021/09/20 12:51:45;;;;;;;10.27;9.23;;;;;22.30;101547.00;;;;10450747;28;20198;-81
2021/09/20 12:56:46;;;;;;;10.52;9.45;;;;;22.10;101554.00;;;;10469717;28;20287;-81
2021/09/20 13:01:57;;;;;;;11.40;9.05;;;;;22.10;101551.00;;;;10482538;28;20232;-81
2021/09/20 13:07:05;;;;;;;13.68;9.75;;;;;22.40;101553.00;;;;10465198;28;20200;-80
2021/09/20 13:12:13;;;;;;;10.43;9.00;;;;;23.10;101560.00;;;;10476369;28;20586;-81
2021/09/20 13:17:39;;;;;;;12.18;9.63;;;;;23.30;101565.00;;;;10490941;28;20234;-80
2021/09/20 13:22:55;;;;;;;14.23;10.45;;;;;23.70;101563.00;;;;10493636;28;20225;-80
2021/09/20 13:28:04;;;;;;;14.00;9.43;;;;;23.70;101569.00;;;;10490795;28;20224;-80
2021/09/20 13:33:06;;;;;;;12.18;9.57;;;;;23.70;101562.00;;;;10438499;28;20607;-81
2021/09/20 13:38:07;;;;;;;11.02;9.85;;;;;23.70;101565.00;;;;10451459;28;20197;-81
2021/09/20 13:43:09;;;;;;;12.38;10.30;;;;;23.50;101566.00;;;;10446869;28;20204;-78
2021/09/20 13:48:12;;;;;;;15.63;11.45;;;;;23.40;101573.00;;;;10459199;28;20205;-80
2021/09/20 13:53:14;;;;;;;14.30;12.73;;;;;23.30;101576.00;;;;10473110;28;20224;-81
2021/09/20 13:58:16;;;;;;;14.50;12.63;;;;;23.10;101575.00;;;;10459952;28;20228;-81
2021/09/20 14:03:17;;;;;;;16.65;12.70;;;;;23.10;101569.00;;;;10487988;28;20203;-80
2021/09/20 14:08:22;;;;;;;18.05;13.45;;;;;23.20;101570.00;;;;10441256;28;20567;-80
2021/09/20 14:13:25;;;;;;;17.27;13.32;;;;;22.70;101571.00;;;;10448811;28;20323;-80
2021/09/20 14:18:26;;;;;;;16.67;13.38;;;;;21.90;101573.00;;;;10454674;28;20205;-80
2021/09/20 14:23:27;;;;;;;16.65;14.85;;;;;21.10;101576.00;;;;10495373;28;20197;-79
2021/09/20 14:28:30;;;;;;;18.38;14.27;;;;;21.10;101583.00;;;;10453717;28;20281;-80
2021/09/20 14:33:31;;;;;;;15.13;13.18;;;;;21.00;101581.00;;;;10482879;28;20761;-80
2021/09/20 14:38:32;;;;;;;18.55;14.23;;;;;20.90;101589.00;;;;10448486;28;20217;-80
2021/09/20 14:43:36;;;;;;;16.30;14.50;;;;;20.80;101590.00;;;;10477149;28;20209;-80
2021/09/20 14:48:38;;;;;;;14.75;13.15;;;;;20.70;101589.00;;;;10495346;28;20577;-80
2021/09/20 14:53:39;;;;;;;15.73;13.40;;;;;20.80;101585.00;;;;10502628;28;20224;-79
2021/09/20 14:58:41;;;;;;;17.38;14.52;;;;;20.90;101594.00;;;;10469181;28;20193;-80
2021/09/20 15:03:44;;;;;;;16.40;14.63;;;;;20.90;101597.00;;;;10478129;28;20192;-80
2021/09/20 15:08:45;;;;;;;13.93;12.60;;;;;20.20;101601.00;;;;10517014;28;20200;-80
2021/09/20 15:13:47;;;;;;;15.57;14.07;;;;;20.00;101603.00;;;;10511228;28;20216;-80
2021/09/20 15:18:48;;;;;;;16.52;14.82;;;;;19.90;101607.00;;;;10491525;28;20211;-80
2021/09/20 15:23:49;;;;;;;16.35;14.77;;;;;20.00;101614.00;;;;10496947;28;20216;-78
2021/09/20 15:28:50;;;;;;;17.90;16.35;;;;;19.90;101607.00;;;;10477398;28;20771;-80
2021/09/20 15:33:52;;;;;;;18.08;16.17;;;;;19.70;101616.00;;;;10512903;28;20247;-79
2021/09/20 15:38:53;;;;;;;17.63;16.02;;;;;19.60;101624.00;;;;10497198;28;20746;-80
2021/09/20 15:43:54;;;;;;;18.50;16.73;;;;;19.50;101634.00;;;;10470355;28;20705;-80
2021/09/20 15:48:55;;;;;;;19.58;16.90;;;;;19.40;101631.00;;;;10492867;28;20213;-80
2021/09/20 15:53:57;;;;;;;17.90;16.30;;;;;19.20;101639.00;;;;10482254;27;20248;-79
2021/09/20 15:58:58;;;;;;;19.05;17.25;;;;;19.00;101644.00;;;;10481695;28;20316;-79
2021/09/20 16:04:01;;;;;;;18.80;16.83;;;;;18.90;101645.00;;;;10483316;28;20209;-79
2021/09/20 16:09:02;;;;;;;17.05;15.45;;;;;18.80;101654.00;;;;10470185;28;20208;-79
2021/09/20 16:14:03;;;;;;;17.33;15.73;;;;;18.70;101654.00;;;;10499254;28;20219;-78
2021/09/20 16:19:05;;;;;;;18.08;16.17;;;;;18.50;101659.00;;;;10487311;28;20261;-79
2021/09/20 16:24:07;;;;;;;16.63;15.15;;;;;18.40;101675.00;;;;10486683;28;20660;-79
2021/09/20 16:29:09;;;;;;;17.35;15.70;;;;;18.20;101675.00;;;;10482600;28;20208;-79
2021/09/20 16:34:10;;;;;;;17.92;16.20;;;;;18.10;101682.00;;;;10461991;28;20282;-79
2021/09/20 16:39:11;;;;;;;17.85;16.05;;;;;18.00;101684.00;;;;10481576;28;20222;-79
2021/09/20 16:44:12;;;;;;;17.65;15.95;;;;;17.90;101692.00;;;;10508480;28;20575;-80
2021/09/20 16:49:14;;;;;;;19.25;15.50;;;;;17.90;101704.00;;;;10470982;28;20212;-78
2021/09/20 16:54:15;;;;;;;16.92;15.38;;;;;17.70;101704.00;;;;10482803;28;20228;-78
2021/09/20 16:59:16;;;;;;;18.52;15.05;;;;;17.70;101719.00;;;;10467203;28;20205;-79
2021/09/20 17:04:17;;;;;;;15.27;13.73;;;;;17.70;101715.00;;;;10475501;28;20200;-80
2021/09/20 17:09:19;;;;;;;15.55;13.75;;;;;17.60;101727.00;;;;10477767;28;20212;-80
2021/09/20 17:14:20;;;;;;;14.13;12.68;;;;;17.40;101727.00;;;;10463218;28;20311;-81
2021/09/20 17:19:22;;;;;;;13.30;12.00;;;;;17.30;101737.00;;;;10484153;28;20212;-81
2021/09/20 17:24:24;;;;;;;12.23;11.02;;;;;17.10;101737.00;;;;10512261;28;20201;-80
2021/09/20 17:29:25;;;;;;;12.57;11.27;;;;;16.90;101744.00;;;;10476746;28;20637;-80
2021/09/20 17:34:26;;;;;;;11.57;10.35;;;;;16.70;101758.00;;;;10477979;28;20266;-80
2021/09/20 17:39:27;;;;;;;11.40;10.27;;;;;16.40;101761.00;;;;10470971;28;20608;-80
2021/09/20 17:44:28;;;;;;;14.23;10.15;;;;;16.20;101770.00;;;;10502918;28;20205;-80
2021/09/20 17:49:30;;;;;;;15.52;9.85;;;;;16.10;101781.00;;;;10474379;28;20202;-80
2021/09/20 17:54:31;;;;;;;11.88;9.93;;;;;16.00;101788.00;;;;10465741;28;21060;-81
2021/09/20 17:59:32;;;;;;;14.75;9.95;;;;;16.00;101791.00;;;;10475662;28;20203;-80
2021/09/20 18:04:34;;;;;;;11.48;9.70;;;;;15.80;101804.00;;;;10475254;28;20209;-81
2021/09/20 18:09:35;;;;;;;12.13;10.68;;;;;15.70;101813.00;;;;10469081;28;20200;-80
2021/09/20 18:14:37;;;;;;;10.32;9.32;;;;;15.60;101810.00;;;;10463369;28;20974;-81
2021/09/20 18:19:38;;;;;;;18.83;10.18;;;;;15.50;101829.00;;;;10476965;28;20207;-81
2021/09/20 18:24:40;;;;;;;9.87;8.97;;;;;15.30;101837.00;;;;10458153;28;20224;-82
2021/09/20 18:29:41;;;;;;;10.33;9.07;;;;;15.20;101848.00;;;;10472708;28;20209;-81
2021/09/20 18:34:44;;;;;;;11.10;8.53;;;;;15.20;101858.00;;;;10467344;28;20550;-81
2021/09/20 18:39:45;;;;;;;9.97;8.50;;;;;15.10;101870.00;;;;10476836;28;20255;-81
2021/09/20 18:44:50;;;;;;;11.53;8.73;;;;;15.10;101876.00;;;;10461588;28;20235;-80
2021/09/20 18:49:52;;;;;;;11.23;8.30;;;;;15.10;101893.00;;;;10481549;28;20211;-81
2021/09/20 18:54:53;;;;;;;11.63;8.03;;;;;15.10;101895.00;;;;10492108;28;20227;-80
2021/09/20 18:59:58;;;;;;;9.00;7.20;;;;;15.10;101906.00;;;;10475985;28;20276;-81
2021/09/20 19:05:00;;;;;;;8.43;7.13;;;;;15.10;101913.00;;;;10482714;28;20211;-81
2021/09/20 19:10:04;;;;;;;6.97;6.10;;;;;15.00;101932.00;;;;10482682;28;20200;-80
2021/09/20 19:15:07;;;;;;;6.50;5.57;;;;;15.00;101941.00;;;;10486800;28;20293;-80
2021/09/20 19:20:11;;;;;;;8.13;5.73;;;;;15.00;101954.00;;;;10472979;28;20222;-81
2021/09/20 19:25:15;;;;;;;6.70;6.00;;;;;15.00;101953.00;;;;10478402;28;20193;-81
2021/09/20 19:30:17;;;;;;;10.97;6.80;;;;;14.90;101964.00;;;;10485975;28;20192;-79
2021/09/20 19:35:19;;;;;;;6.80;5.70;;;;;14.90;101971.00;;;;10497230;28;20251;-80
2021/09/20 19:40:21;;;;;;;6.77;5.67;;;;;14.80;101975.00;;;;10482942;28;20599;-79
2021/09/20 19:45:22;;;;;;;7.87;6.10;;;;;14.80;101976.00;;;;10493082;28;20196;-80
2021/09/20 19:50:25;;;;;;;6.83;6.07;;;;;14.70;101982.00;;;;10491715;28;20205;-80
2021/09/20 19:55:33;;;;;;;9.17;5.03;;;;;14.70;101981.00;;;;10471934;28;20225;-80
2021/09/20 20:00:35;;;;;;;10.30;5.30;;;;;14.60;101998.00;;;;10487748;28;20210;-80
2021/09/20 20:05:37;;;;;;;6.70;5.37;;;;;14.60;101993.00;;;;10436808;28;20213;-79
2021/09/20 20:10:38;;;;;;;6.23;5.33;;;;;14.50;101993.00;;;;10520174;28;20211;-80
2021/09/20 20:15:39;;;;;;;8.20;5.23;;;;;14.50;101990.00;;;;10495791;28;20223;-80
2021/09/20 20:20:44;;;;;;;5.43;4.77;;;;;14.40;101987.00;;;;10491271;28;20193;-80
2021/09/20 20:25:46;;;;;;;11.40;5.10;;;;;14.30;101989.00;;;;10492649;28;20731;-79
2021/09/20 20:30:48;;;;;;;6.43;4.17;;;;;14.20;101999.00;;;;10461368;28;20197;-80
2021/09/20 20:35:50;;;;;;;4.97;4.47;;;;;14.10;102004.00;;;;10450742;28;20244;-79
2021/09/20 20:40:51;;;;;;;7.07;4.40;;;;;14.00;102010.00;;;;10473205;28;20852;-80
2021/09/20 20:45:52;;;;;;;6.07;3.93;;;;;13.90;102015.00;;;;10503519;28;20221;-80
2021/09/20 20:50:54;;;;;;;5.07;4.53;;;;;13.70;102021.00;;;;10520319;28;20205;-79
2021/09/20 20:55:55;;;;;;;6.83;5.23;;;;;13.50;102012.00;;;;10465647;28;20218;-79
2021/09/20 21:00:56;;;;;;;4.47;3.50;;;;;13.40;102041.00;;;;10489037;28;20199;-80
2021/09/20 21:05:58;;;;;;;7.33;4.27;;;;;13.30;102041.00;;;;10449389;28;20298;-80
2021/09/20 21:11:00;;;;;;;4.67;3.73;;;;;13.10;102047.00;;;;10441657;28;20615;-79
2021/09/20 21:16:03;;;;;;;4.27;3.87;;;;;13.00;102044.00;;;;10409119;28;20221;-79
2021/09/20 21:21:04;;;;;;;7.60;3.97;;;;;12.90;102053.00;;;;10398799;28;1113569;-79
2021/09/20 21:26:06;;;;;;;5.93;4.00;;;;;12.80;102062.00;;;;10425482;28;20213;-79
2021/09/20 21:31:08;;;;;;;4.53;3.73;;;;;12.80;102068.00;;;;10406224;28;20197;-80
2021/09/20 21:36:10;;;;;;;4.20;3.77;;;;;12.80;102069.00;;;;10471106;28;20216;-80
2021/09/20 21:41:12;;;;;;;6.30;4.23;;;;;12.70;102059.00;;;;10450442;28;20218;-80
2021/09/20 21:46:14;;;;;;;7.23;4.33;;;;;12.60;102082.00;;;;10431900;28;20869;-79
2021/09/20 21:51:17;;;;;;;6.10;4.90;;;;;12.60;102081.00;;;;10435087;28;20225;-79
2021/09/20 21:56:19;;;;;;;6.80;3.93;;;;;12.60;102097.00;;;;10400451;28;20224;-79
2021/09/20 22:01:20;;;;;;;12.10;5.00;;;;;12.70;102104.00;;;;10463512;28;20206;-79
2021/09/20 22:06:22;;;;;;;6.00;4.20;;;;;12.80;102096.00;;;;10447301;28;20198;-80
2021/09/20 22:11:24;;;;;;;5.63;4.40;;;;;12.90;102117.00;;;;10461988;28;20202;-80
2021/09/20 22:16:26;;;;;;;7.17;4.10;;;;;12.90;102106.00;;;;10444687;28;20217;-79
2021/09/20 22:21:28;;;;;;;8.13;4.50;;;;;12.90;102110.00;;;;10465161;28;20295;-80
2021/09/20 22:26:30;;;;;;;4.43;4.03;;;;;12.90;102103.00;;;;10453203;28;20225;-80
2021/09/20 22:31:32;;;;;;;6.67;4.47;;;;;12.80;102111.00;;;;10479733;28;20578;-77
2021/09/20 22:36:34;;;;;;;5.93;4.30;;;;;12.80;102112.00;;;;10470189;28;20610;-80
2021/09/20 22:41:36;;;;;;;5.77;3.97;;;;;12.70;102122.00;;;;10482687;28;20256;-81
2021/09/20 22:46:38;;;;;;;7.27;4.17;;;;;12.70;102125.00;;;;10454798;28;20606;-80
2021/09/20 22:51:40;;;;;;;5.43;4.27;;;;;12.50;102116.00;;;;10435519;28;20198;-80
2021/09/20 22:56:42;;;;;;;5.53;4.40;;;;;12.40;102120.00;;;;10421550;28;20212;-80
2021/09/20 23:01:44;;;;;;;5.50;4.43;;;;;12.30;102125.00;;;;10463882;28;20288;-80
2021/09/20 23:06:46;;;;;;;6.47;4.70;;;;;12.10;102143.00;;;;10464935;28;20190;-81
2021/09/20 23:11:48;;;;;;;5.93;4.53;;;;;12.00;102151.00;;;;10464587;28;20942;-80
2021/09/20 23:16:50;;;;;;;5.60;3.97;;;;;12.00;102169.00;;;;10465087;28;20218;-80
2021/09/20 23:21:53;;;;;;;6.43;4.23;;;;;11.90;102171.00;;;;10464467;28;20193;-80
2021/09/20 23:26:55;;;;;;;6.20;4.70;;;;;11.70;102168.00;;;;10463872;28;20549;-81
2021/09/20 23:31:57;;;;;;;6.30;4.73;;;;;11.50;102166.00;;;;10480731;28;20200;-81
2021/09/20 23:36:59;;;;;;;5.20;4.70;;;;;11.40;102168.00;;;;10479469;28;20206;-80
2021/09/20 23:42:01;;;;;;;6.50;4.93;;;;;11.20;102164.00;;;;10462652;28;20210;-80
2021/09/20 23:47:04;;;;;;;8.00;4.47;;;;;11.00;102160.00;;;;10446655;28;20293;-80
2021/09/20 23:52:07;;;;;;;6.30;4.80;;;;;10.90;102162.00;;;;10442945;28;20679;-80
2021/09/20 23:57:08;;;;;;;9.27;4.80;;;;;10.80;102167.00;;;;10455959;28;20229;-80
